Besuchen Sie unsere anderen Wetter Stationen:

Template documentation
and downloads

And another site



METAR-Meldungen aus der Umgebung

   
EHVK - Volkel Rnlafb, Netherlands
Entfernung von der Station bis: SW 18 km
Aktualisierung: 20-06-2019 10:44
Bewölkt  
Bewölkt  
   Wind: SW 25.9 km/h
Wind: SW 25.9 km/h
Temperatur: 18°C
Taupunkt: 14°C
Luftfeuchte: 78%
Luftdruck: 1011 hPa
Bewölkt: Bewölkt
Sichtbarkeit: More than 10 km
Bewölkung: Teilweise bewölkt 548.6 m,
Bewölkt 640.1 m
EHVK 200844Z AUTO 22014KT 200V260 9999 SCT018 OVC021 18/14 Q1011 WHT 22010KT 9999 FEW018 BKN022
EDLV - Niederrhein, Germany
Entfernung von der Station bis: SO 25 km
Aktualisierung: 20-06-2019 10:50
Teilweise bewölkt  
Teilweise bewölkt  
   Wind: WSW 20.4 km/h
Wind: WSW 20.4 km/h
Temperatur: 19°C
Taupunkt: 15°C
Luftfeuchte: 78%
Luftdruck: 1011 hPa
Bewölkt: Teilweise bewölkt
Sichtbarkeit: More than 10 km
Bewölkung: Teilweise bewölkt 609.6 m
EDLV 200850Z 25011KT 9999 SCT020 19/15 Q1011
EHDL - Deelen Rnlafb, Netherlands
Entfernung von der Station bis: N 35 km
Aktualisierung: 20-06-2019 10:25
Stark bewölkt  
Stark bewölkt  
   Wind: SW 20.4 km/h
Wind: SW 20.4 km/h
Temperatur: 18°C
Taupunkt: 14°C
Luftfeuchte: 78%
Luftdruck: 1010 hPa
Bewölkt: Stark bewölkt
Sichtbarkeit: More than 10 km
Bewölkung: leicht bewölkt 487.7 m,
Teilweise bewölkt 883.9 m,
Stark bewölkt 1005.8 m
EHDL 200825Z AUTO 22011KT 200V290 9999 FEW016 SCT029 BKN033 18/14 Q1010 BLU
EHEH - Eindhoven Rnlafb, Netherlands
Entfernung von der Station bis: SW 48 km
Aktualisierung: 20-06-2019 10:27
Bewölkt  
Bewölkt  
   Wind: SSW 24.1 km/h
Wind: SSW 24.1 km/h
Temperatur: 17°C
Taupunkt: 13°C
Luftfeuchte: 77%
Luftdruck: 1011 hPa
Bewölkt: Bewölkt
Sichtbarkeit: More than 10 km
Bewölkung: Stark bewölkt 548.6 m,
Bewölkt 640.1 m
EHEH 200827Z AUTO 21013KT 9999 BKN018 OVC021 17/13 Q1011 WHT 23010KT 9999 SCT016 BKN020 BKN025
EHGR - Gilze-Rijen Rnla, Netherlands
Entfernung von der Station bis: WSW 70 km
Aktualisierung: 20-06-2019 10:25
Bewölkt  
Bewölkt  
   Wind: SW 14.8 km/h
Wind: SW 14.8 km/h
Temperatur: 17°C
Taupunkt: 13°C
Luftfeuchte: 77%
Luftdruck: 1011 hPa
Bewölkt: Bewölkt
Sichtbarkeit: More than 10 km
Bewölkung: Teilweise bewölkt 457.2 m,
Bewölkt 579.1 m
EHGR 200825Z AUTO 22008KT 200V280 9999 SCT015 OVC019 17/13 Q1011 WHT 23008KT 9999 SCT015 BKN020
EBBL - Kleine-Brogel(Ba, Belgium
Entfernung von der Station bis: SSW 71 km
Aktualisierung: 20-06-2019 10:25
Stark bewölkt  
Stark bewölkt  
   Wind: WSW 14.8 km/h
Wind: WSW 14.8 km/h
Temperatur: 18°C
Taupunkt: 14°C
Luftfeuchte: 78%
Luftdruck: 1012 hPa
Bewölkt: Stark bewölkt
Sichtbarkeit: More than 10 km
Bewölkung: Teilweise bewölkt 457.2 m,
Stark bewölkt 701 m
EBBL 200825Z 24008KT 9999 SCT015 BKN023 18/14 Q1012 WHT WHT

Script entwickelt von  Saratoga-weather.org Angepasst für das Template von  Weerstation Leuven

Sie finden unser Wetter-Infos auch auf:

netzwerkwettercom

European Weather Network

WeatherCloud

Weather Underground

AWEKAS

Citizen Weather Observer Program (CWOP)

HAMweather, WeatherForYou, PWS Weather

Von uns verwendete Ausrüstung:

Wetterstation
Davis VP2

Davis VP2